Flag for USA

Past Weather in 31°16'49.3"N, 81°33'15.4"W, USA — Yesterday and Last 2 Weeks

Currently: 64 °F. Sunny. (Weather station: Waycross / Ware County - Ga, USA). See more current weather

Past Weather in 31°16'49.3"N, 81°33'15.4"W — Graph

°F

31°16'49.3"N, 81°33'15.4"W Temperature Yesterday

Maximum temperature yesterday: 56 °F (at 10:55 am)
Minimum temperature yesterday: 41 °F (at 11:35 pm)
Average temperature yesterday: 52 °F

High & Low Weather Summary for the Past Weeks

 TemperatureHumidityPressure
High85 °F (Feb 28, 3:55 pm)97% (Feb 21, 1:15 am)30.46 "Hg (Feb 21, 1:15 am)
Low34 °F (Feb 21, 6:35 am)20% (Feb 23, 2:55 pm)29.88 "Hg (Mar 3, 2:35 am)
Average58 °F73%30.14 "Hg
* Reported Feb 20 4:15 pm — Mar 7 4:15 pm, 31°16'49.3"N, 81°33'15.4"W. Weather by CustomWeather, © 2021

Note: Actual official high and low records may vary slightly from our data, if they occured in-between our weather recording intervals... More about our weather records

31°16'49.3"N, 81°33'15.4"W Weather History for the Previous 24 Hours

Scroll right to see more
 ConditionsComfort  
Time TempWeatherWind HumidityBarometerVisibility
4:15 pm
Sun, Mar 7
64 °FSunny.9 mph22%30.28 "Hg10 mi
3:55 pm65 °FSunny.10 mph21%30.29 "Hg10 mi
3:35 pm65 °FSunny.8 mph22%30.28 "Hg10 mi
3:15 pm65 °FSunny.12 mph22%30.28 "Hg10 mi
2:55 pm64 °FSunny.10 mph24%30.28 "Hg10 mi
2:35 pm64 °FSunny.8 mph23%30.29 "Hg10 mi
1:55 pm64 °FSunny.14 mph22%30.30 "Hg10 mi
1:35 pm63 °FSunny.5 mph23%30.31 "Hg10 mi
1:15 pm62 °FSunny.6 mph23%30.31 "Hg10 mi
12:55 pm62 °FSunny.7 mph23%30.32 "Hg10 mi
12:35 pm61 °FSunny.13 mph22%30.33 "Hg10 mi
12:15 pm62 °FSunny.10 mph23%30.33 "Hg10 mi
11:55 am61 °FSunny.8 mph23%30.33 "Hg10 mi
11:35 am60 °FSunny.6 mph23%30.33 "Hg10 mi
11:15 am59 °FSunny.10 mph25%30.33 "Hg10 mi
10:55 am58 °FSunny.9 mph26%30.33 "Hg10 mi
10:35 am57 °FSunny.8 mph32%30.33 "Hg10 mi
10:15 am56 °FSunny.9 mph35%30.33 "Hg10 mi
9:55 am55 °FSunny.9 mph40%30.33 "Hg10 mi
9:35 am54 °FSunny.7 mph45%30.32 "Hg10 mi
9:15 am52 °FSunny.7 mph52%30.32 "Hg10 mi
8:55 am49 °FSunny.7 mph58%30.32 "Hg10 mi
8:35 am47 °FSunny.5 mph64%30.31 "Hg10 mi
8:15 am45 °FSunny.5 mph73%30.30 "Hg10 mi
7:35 am41 °FSunny.5 mph88%30.28 "Hg10 mi
6:55 am38 °FSunny.7 mph96%30.25 "Hg10 mi
6:35 am37 °FClear.7 mph95%30.25 "Hg10 mi
6:15 am38 °FClear.6 mph96%30.24 "Hg10 mi
5:55 am38 °FClear.5 mph96%30.24 "Hg10 mi
5:35 am40 °FClear.3 mph96%30.23 "Hg10 mi
5:15 am40 °FClear.No wind96%30.22 "Hg10 mi
4:55 am39 °FClear.5 mph95%30.21 "Hg10 mi
4:35 am40 °FClear.5 mph96%30.21 "Hg10 mi
4:15 am40 °FClear.6 mph95%30.21 "Hg10 mi
3:55 am40 °FClear.6 mph95%30.20 "Hg10 mi
3:35 am40 °FClear.7 mph96%30.19 "Hg10 mi
3:15 am41 °FClear.5 mph96%30.19 "Hg10 mi
2:35 am40 °FClear.6 mph96%30.20 "Hg10 mi
2:15 am41 °FClear.5 mph96%30.20 "Hg10 mi
1:55 am39 °FClear.5 mph96%30.20 "Hg10 mi
1:35 am39 °FClear.5 mph96%30.20 "Hg10 mi
1:15 am40 °FClear.5 mph95%30.20 "Hg10 mi
12:55 am40 °FClear.3 mph96%30.19 "Hg10 mi
12:35 am42 °FClear.No wind96%30.19 "Hg10 mi
12:15 am41 °FClear.No wind96%30.19 "Hg7 mi
11:55 pm
Sat, Mar 6
41 °FClear.No wind96%30.19 "Hg10 mi
11:35 pm41 °FClear.No wind96%30.20 "Hg10 mi
11:15 pm43 °FClear.No wind96%30.20 "Hg10 mi
10:55 pm43 °FClear.No wind97%30.19 "Hg10 mi
10:35 pm45 °FClear.No wind95%30.19 "Hg10 mi
10:15 pm47 °FPassing clouds.No wind84%30.19 "Hg10 mi
9:55 pm48 °FOvercast.3 mph83%30.19 "Hg10 mi
9:35 pm48 °FOvercast.No wind85%30.18 "Hg10 mi
9:15 pm49 °FOvercast.No wind82%30.18 "Hg10 mi
8:35 pm48 °FOvercast.3 mph81%30.17 "Hg10 mi
8:15 pm49 °FOvercast.3 mph77%30.16 "Hg10 mi
7:55 pm50 °FOvercast.3 mph74%30.16 "Hg10 mi
7:15 pm51 °FOvercast.6 mph69%30.15 "Hg10 mi
6:55 pm51 °FMostly cloudy.5 mph68%30.14 "Hg10 mi
6:35 pm52 °FMostly cloudy.6 mph67%30.14 "Hg10 mi
6:15 pm52 °FMostly cloudy.3 mph64%30.13 "Hg10 mi
5:55 pm53 °FOvercast.5 mph62%30.12 "Hg10 mi
5:35 pm54 °FOvercast.7 mph58%30.12 "Hg10 mi
5:15 pm54 °FOvercast.7 mph55%30.11 "Hg10 mi
Weather by CustomWeather, © 2021

See weather overview